Terminal Aerodrome Forecast
Issued by NWS North Platte, NE

Home | Current Version | Previous Version | Graphics & Text | Print | Product List | Glossary On
Versions: 1 2 3 4 5 6 7 8 9 10 11 12 13
431
FTUS43 KLBF 152320
TAFVTN
TAF
KVTN 152320Z 1600/1624 25007KT P6SM BKN250
     FM161200 30006KT P6SM BKN250
     FM161500 33008KT P6SM OVC200
     FM161800 36011KT P6SM BKN090
     FM162200 01009KT P6SM OVC020=

USA.gov is the U.S. government's official web portal to all federal, state and local government web resources and services.